sensor_id;sensor_type;location;lat;lon;timestamp;P1;durP1;ratioP1;P2;durP2;ratioP2
11255;SDS011;5685;52.384;13.420;2023-03-13T00:01:47;71.07;;;37.50;;
11255;SDS011;5685;52.384;13.420;2023-03-13T00:04:50;71.10;;;37.30;;
11255;SDS011;5685;52.384;13.420;2023-03-13T00:07:53;71.83;;;37.53;;
11255;SDS011;5685;52.384;13.420;2023-03-13T00:10:55;71.27;;;37.43;;
11255;SDS011;5685;52.384;13.420;2023-03-13T00:13:58;71.70;;;37.60;;
11255;SDS011;5685;52.384;13.420;2023-03-13T00:17:04;71.50;;;37.60;;
11255;SDS011;5685;52.384;13.420;2023-03-13T00:20:07;71.90;;;37.50;;
11255;SDS011;5685;52.384;13.420;2023-03-13T00:23:10;71.63;;;37.40;;
11255;SDS011;5685;52.384;13.420;2023-03-13T00:26:14;71.43;;;37.33;;
11255;SDS011;5685;52.384;13.420;2023-03-13T00:29:17;71.77;;;37.43;;
11255;SDS011;5685;52.384;13.420;2023-03-13T00:32:21;71.10;;;37.23;;
11255;SDS011;5685;52.384;13.420;2023-03-13T00:35:24;71.63;;;37.47;;
11255;SDS011;5685;52.384;13.420;2023-03-13T00:38:27;71.53;;;37.47;;
11255;SDS011;5685;52.384;13.420;2023-03-13T00:41:31;71.80;;;37.53;;
11255;SDS011;5685;52.384;13.420;2023-03-13T00:44:34;71.10;;;37.43;;
11255;SDS011;5685;52.384;13.420;2023-03-13T00:47:38;71.53;;;37.47;;
11255;SDS011;5685;52.384;13.420;2023-03-13T00:50:40;71.37;;;37.37;;
11255;SDS011;5685;52.384;13.420;2023-03-13T00:53:43;72.23;;;37.80;;
11255;SDS011;5685;52.384;13.420;2023-03-13T00:56:46;71.33;;;37.47;;
11255;SDS011;5685;52.384;13.420;2023-03-13T00:59:49;71.97;;;37.90;;
11255;SDS011;5685;52.384;13.420;2023-03-13T01:02:53;71.43;;;37.63;;
11255;SDS011;5685;52.384;13.420;2023-03-13T01:05:56;71.60;;;37.60;;
11255;SDS011;5685;52.384;13.420;2023-03-13T01:08:59;71.07;;;37.40;;
11255;SDS011;5685;52.384;13.420;2023-03-13T01:12:02;70.93;;;37.40;;
11255;SDS011;5685;52.384;13.420;2023-03-13T01:15:05;70.90;;;37.27;;
11255;SDS011;5685;52.384;13.420;2023-03-13T01:18:10;71.53;;;37.43;;
11255;SDS011;5685;52.384;13.420;2023-03-13T01:21:14;71.43;;;37.60;;
11255;SDS011;5685;52.384;13.420;2023-03-13T01:24:19;71.80;;;37.70;;
11255;SDS011;5685;52.384;13.420;2023-03-13T01:27:23;71.13;;;37.50;;
11255;SDS011;5685;52.384;13.420;2023-03-13T01:30:27;71.80;;;37.67;;
11255;SDS011;5685;52.384;13.420;2023-03-13T01:33:31;71.63;;;37.53;;
11255;SDS011;5685;52.384;13.420;2023-03-13T01:36:34;71.07;;;37.40;;
11255;SDS011;5685;52.384;13.420;2023-03-13T01:39:37;71.50;;;37.73;;
11255;SDS011;5685;52.384;13.420;2023-03-13T01:42:50;71.70;;;37.60;;
11255;SDS011;5685;52.384;13.420;2023-03-13T01:45:56;72.00;;;37.70;;
11255;SDS011;5685;52.384;13.420;2023-03-13T01:49:05;71.60;;;37.50;;
11255;SDS011;5685;52.384;13.420;2023-03-13T01:52:12;71.67;;;37.70;;
11255;SDS011;5685;52.384;13.420;2023-03-13T01:55:16;71.33;;;37.60;;
11255;SDS011;5685;52.384;13.420;2023-03-13T01:58:19;71.50;;;37.80;;
11255;SDS011;5685;52.384;13.420;2023-03-13T02:01:22;71.47;;;37.80;;
11255;SDS011;5685;52.384;13.420;2023-03-13T02:04:26;71.10;;;37.60;;
11255;SDS011;5685;52.384;13.420;2023-03-13T02:07:33;70.87;;;37.40;;
11255;SDS011;5685;52.384;13.420;2023-03-13T02:10:38;71.00;;;37.53;;
11255;SDS011;5685;52.384;13.420;2023-03-13T02:13:44;71.10;;;37.57;;
11255;SDS011;5685;52.384;13.420;2023-03-13T02:16:48;71.20;;;37.60;;
11255;SDS011;5685;52.384;13.420;2023-03-13T02:19:53;71.20;;;37.53;;
11255;SDS011;5685;52.384;13.420;2023-03-13T02:22:57;71.17;;;37.70;;
11255;SDS011;5685;52.384;13.420;2023-03-13T02:26:03;71.47;;;37.87;;
11255;SDS011;5685;52.384;13.420;2023-03-13T02:29:06;71.60;;;37.80;;
11255;SDS011;5685;52.384;13.420;2023-03-13T02:32:17;71.17;;;37.40;;
11255;SDS011;5685;52.384;13.420;2023-03-13T02:35:20;71.20;;;37.60;;
11255;SDS011;5685;52.384;13.420;2023-03-13T02:38:24;71.30;;;37.60;;
11255;SDS011;5685;52.384;13.420;2023-03-13T02:41:29;71.03;;;37.70;;
11255;SDS011;5685;52.384;13.420;2023-03-13T02:44:36;70.77;;;37.50;;
11255;SDS011;5685;52.384;13.420;2023-03-13T02:47:39;71.40;;;37.70;;
11255;SDS011;5685;52.384;13.420;2023-03-13T02:50:42;71.20;;;37.60;;
11255;SDS011;5685;52.384;13.420;2023-03-13T02:53:45;71.07;;;37.50;;
11255;SDS011;5685;52.384;13.420;2023-03-13T02:56:50;71.20;;;37.73;;
11255;SDS011;5685;52.384;13.420;2023-03-13T02:59:54;70.67;;;37.70;;
11255;SDS011;5685;52.384;13.420;2023-03-13T03:02:57;71.67;;;37.93;;
11255;SDS011;5685;52.384;13.420;2023-03-13T03:05:59;71.10;;;37.73;;
11255;SDS011;5685;52.384;13.420;2023-03-13T03:09:03;70.90;;;37.67;;
11255;SDS011;5685;52.384;13.420;2023-03-13T03:12:07;71.33;;;37.70;;
11255;SDS011;5685;52.384;13.420;2023-03-13T03:15:10;70.60;;;37.37;;
11255;SDS011;5685;52.384;13.420;2023-03-13T03:18:13;70.93;;;37.73;;
11255;SDS011;5685;52.384;13.420;2023-03-13T03:21:16;70.80;;;37.50;;
11255;SDS011;5685;52.384;13.420;2023-03-13T03:24:18;71.40;;;37.70;;
11255;SDS011;5685;52.384;13.420;2023-03-13T03:27:22;71.03;;;37.40;;
11255;SDS011;5685;52.384;13.420;2023-03-13T03:30:25;71.00;;;37.53;;
11255;SDS011;5685;52.384;13.420;2023-03-13T03:33:28;71.27;;;37.57;;
11255;SDS011;5685;52.384;13.420;2023-03-13T03:36:30;70.80;;;37.60;;
11255;SDS011;5685;52.384;13.420;2023-03-13T03:39:33;71.33;;;37.63;;
11255;SDS011;5685;52.384;13.420;2023-03-13T03:42:37;71.30;;;37.57;;
11255;SDS011;5685;52.384;13.420;2023-03-13T03:45:40;71.90;;;37.80;;
11255;SDS011;5685;52.384;13.420;2023-03-13T03:48:43;71.50;;;37.67;;
11255;SDS011;5685;52.384;13.420;2023-03-13T03:51:45;71.70;;;37.77;;
11255;SDS011;5685;52.384;13.420;2023-03-13T03:54:48;71.53;;;37.73;;
11255;SDS011;5685;52.384;13.420;2023-03-13T03:57:53;71.10;;;37.60;;
11255;SDS011;5685;52.384;13.420;2023-03-13T04:00:56;71.70;;;37.90;;
11255;SDS011;5685;52.384;13.420;2023-03-13T04:03:59;72.67;;;38.27;;
11255;SDS011;5685;52.384;13.420;2023-03-13T04:07:01;71.07;;;37.50;;
11255;SDS011;5685;52.384;13.420;2023-03-13T04:10:04;72.00;;;37.73;;
11255;SDS011;5685;52.384;13.420;2023-03-13T04:13:09;71.40;;;37.60;;
11255;SDS011;5685;52.384;13.420;2023-03-13T04:16:12;72.20;;;37.73;;
11255;SDS011;5685;52.384;13.420;2023-03-13T04:19:14;71.17;;;37.40;;
11255;SDS011;5685;52.384;13.420;2023-03-13T04:22:17;71.43;;;37.63;;
11255;SDS011;5685;52.384;13.420;2023-03-13T04:25:20;71.90;;;38.03;;
11255;SDS011;5685;52.384;13.420;2023-03-13T04:28:24;71.70;;;37.70;;
11255;SDS011;5685;52.384;13.420;2023-03-13T04:31:27;71.73;;;37.63;;
11255;SDS011;5685;52.384;13.420;2023-03-13T04:34:29;71.40;;;37.60;;
11255;SDS011;5685;52.384;13.420;2023-03-13T04:37:32;71.70;;;37.57;;
11255;SDS011;5685;52.384;13.420;2023-03-13T04:40:35;71.60;;;37.63;;
11255;SDS011;5685;52.384;13.420;2023-03-13T04:43:39;70.93;;;37.30;;
11255;SDS011;5685;52.384;13.420;2023-03-13T04:46:42;71.77;;;37.60;;
11255;SDS011;5685;52.384;13.420;2023-03-13T04:49:45;72.37;;;37.90;;
11255;SDS011;5685;52.384;13.420;2023-03-13T04:52:47;71.67;;;37.70;;
11255;SDS011;5685;52.384;13.420;2023-03-13T04:55:50;71.33;;;37.40;;
11255;SDS011;5685;52.384;13.420;2023-03-13T04:58:54;71.87;;;37.90;;
11255;SDS011;5685;52.384;13.420;2023-03-13T05:01:57;72.47;;;38.00;;
11255;SDS011;5685;52.384;13.420;2023-03-13T05:05:00;71.13;;;37.57;;
11255;SDS011;5685;52.384;13.420;2023-03-13T05:08:02;71.60;;;37.80;;
11255;SDS011;5685;52.384;13.420;2023-03-13T05:11:05;72.17;;;37.90;;
11255;SDS011;5685;52.384;13.420;2023-03-13T05:14:09;72.03;;;37.77;;
11255;SDS011;5685;52.384;13.420;2023-03-13T05:17:12;71.53;;;37.40;;
11255;SDS011;5685;52.384;13.420;2023-03-13T05:20:16;71.73;;;37.70;;
11255;SDS011;5685;52.384;13.420;2023-03-13T05:23:19;71.73;;;37.60;;
11255;SDS011;5685;52.384;13.420;2023-03-13T05:26:22;72.00;;;37.77;;
11255;SDS011;5685;52.384;13.420;2023-03-13T05:29:26;71.50;;;37.60;;
11255;SDS011;5685;52.384;13.420;2023-03-13T05:32:29;72.17;;;37.90;;
11255;SDS011;5685;52.384;13.420;2023-03-13T05:35:31;71.53;;;37.50;;
11255;SDS011;5685;52.384;13.420;2023-03-13T05:38:34;72.10;;;37.87;;
11255;SDS011;5685;52.384;13.420;2023-03-13T05:41:37;71.43;;;37.57;;
11255;SDS011;5685;52.384;13.420;2023-03-13T05:44:41;71.67;;;37.60;;
11255;SDS011;5685;52.384;13.420;2023-03-13T05:47:43;71.87;;;37.80;;
11255;SDS011;5685;52.384;13.420;2023-03-13T05:50:46;72.00;;;37.80;;
11255;SDS011;5685;52.384;13.420;2023-03-13T05:53:49;71.90;;;37.70;;
11255;SDS011;5685;52.384;13.420;2023-03-13T05:56:52;72.03;;;37.70;;
11255;SDS011;5685;52.384;13.420;2023-03-13T05:59:56;71.80;;;37.60;;
11255;SDS011;5685;52.384;13.420;2023-03-13T06:02:59;71.67;;;37.67;;
11255;SDS011;5685;52.384;13.420;2023-03-13T06:06:01;71.43;;;37.60;;
11255;SDS011;5685;52.384;13.420;2023-03-13T06:09:04;71.27;;;37.63;;
11255;SDS011;5685;52.384;13.420;2023-03-13T06:12:07;71.57;;;37.60;;
11255;SDS011;5685;52.384;13.420;2023-03-13T06:15:11;71.60;;;37.57;;
11255;SDS011;5685;52.384;13.420;2023-03-13T06:18:14;72.37;;;37.93;;
11255;SDS011;5685;52.384;13.420;2023-03-13T06:21:17;71.53;;;37.70;;
11255;SDS011;5685;52.384;13.420;2023-03-13T06:24:19;71.90;;;37.83;;
11255;SDS011;5685;52.384;13.420;2023-03-13T06:27:22;71.87;;;37.70;;
11255;SDS011;5685;52.384;13.420;2023-03-13T06:30:26;71.53;;;37.60;;
11255;SDS011;5685;52.384;13.420;2023-03-13T06:33:29;71.53;;;37.57;;
11255;SDS011;5685;52.384;13.420;2023-03-13T06:36:32;71.97;;;37.80;;
11255;SDS011;5685;52.384;13.420;2023-03-13T06:39:34;71.87;;;37.83;;
11255;SDS011;5685;52.384;13.420;2023-03-13T06:42:37;71.17;;;37.40;;
11255;SDS011;5685;52.384;13.420;2023-03-13T06:45:41;71.30;;;37.37;;
11255;SDS011;5685;52.384;13.420;2023-03-13T06:48:44;72.33;;;37.80;;
11255;SDS011;5685;52.384;13.420;2023-03-13T06:51:47;71.13;;;37.43;;
11255;SDS011;5685;52.384;13.420;2023-03-13T06:54:49;71.00;;;37.57;;
11255;SDS011;5685;52.384;13.420;2023-03-13T06:57:52;71.27;;;37.70;;
11255;SDS011;5685;52.384;13.420;2023-03-13T07:00:56;71.77;;;37.77;;
11255;SDS011;5685;52.384;13.420;2023-03-13T07:03:59;71.63;;;37.70;;
11255;SDS011;5685;52.384;13.420;2023-03-13T07:07:02;72.27;;;37.90;;
11255;SDS011;5685;52.384;13.420;2023-03-13T07:10:05;71.80;;;37.70;;
11255;SDS011;5685;52.384;13.420;2023-03-13T07:13:09;71.53;;;37.47;;
11255;SDS011;5685;52.384;13.420;2023-03-13T07:16:13;71.07;;;37.50;;
11255;SDS011;5685;52.384;13.420;2023-03-13T07:19:17;70.90;;;37.30;;
11255;SDS011;5685;52.384;13.420;2023-03-13T07:22:19;71.17;;;37.37;;
11255;SDS011;5685;52.384;13.420;2023-03-13T07:25:22;71.73;;;37.67;;
11255;SDS011;5685;52.384;13.420;2023-03-13T07:28:25;71.23;;;37.47;;
11255;SDS011;5685;52.384;13.420;2023-03-13T07:31:30;70.97;;;37.40;;
11255;SDS011;5685;52.384;13.420;2023-03-13T07:34:34;71.07;;;37.40;;
11255;SDS011;5685;52.384;13.420;2023-03-13T07:37:36;71.87;;;37.67;;
11255;SDS011;5685;52.384;13.420;2023-03-13T07:40:39;71.37;;;37.57;;
11255;SDS011;5685;52.384;13.420;2023-03-13T07:43:47;71.70;;;37.50;;
11255;SDS011;5685;52.384;13.420;2023-03-13T07:46:51;71.60;;;37.57;;
11255;SDS011;5685;52.384;13.420;2023-03-13T07:49:54;71.73;;;37.60;;
11255;SDS011;5685;52.384;13.420;2023-03-13T07:52:57;72.03;;;37.77;;
11255;SDS011;5685;52.384;13.420;2023-03-13T07:56:00;72.07;;;37.70;;
11255;SDS011;5685;52.384;13.420;2023-03-13T07:59:04;71.57;;;37.63;;
11255;SDS011;5685;52.384;13.420;2023-03-13T08:02:08;71.63;;;37.67;;
11255;SDS011;5685;52.384;13.420;2023-03-13T08:05:13;70.93;;;37.23;;
11255;SDS011;5685;52.384;13.420;2023-03-13T08:08:15;71.10;;;37.30;;
11255;SDS011;5685;52.384;13.420;2023-03-13T08:11:19;71.73;;;37.63;;
11255;SDS011;5685;52.384;13.420;2023-03-13T08:14:24;71.27;;;37.53;;
11255;SDS011;5685;52.384;13.420;2023-03-13T08:17:29;71.80;;;37.73;;
11255;SDS011;5685;52.384;13.420;2023-03-13T08:20:32;71.93;;;37.73;;
11255;SDS011;5685;52.384;13.420;2023-03-13T08:23:35;71.13;;;37.60;;
11255;SDS011;5685;52.384;13.420;2023-03-13T08:26:38;71.13;;;37.57;;
11255;SDS011;5685;52.384;13.420;2023-03-13T08:29:41;71.43;;;37.60;;
11255;SDS011;5685;52.384;13.420;2023-03-13T08:32:45;71.80;;;37.80;;
11255;SDS011;5685;52.384;13.420;2023-03-13T08:35:48;71.63;;;37.60;;
11255;SDS011;5685;52.384;13.420;2023-03-13T08:38:51;71.30;;;37.40;;
11255;SDS011;5685;52.384;13.420;2023-03-13T08:41:54;71.73;;;37.90;;
11255;SDS011;5685;52.384;13.420;2023-03-13T08:44:57;71.40;;;37.70;;
11255;SDS011;5685;52.384;13.420;2023-03-13T08:48:01;71.97;;;37.80;;
11255;SDS011;5685;52.384;13.420;2023-03-13T08:51:05;71.40;;;37.77;;
11255;SDS011;5685;52.384;13.420;2023-03-13T08:54:09;71.80;;;37.77;;
11255;SDS011;5685;52.384;13.420;2023-03-13T08:57:11;72.27;;;38.00;;
11255;SDS011;5685;52.384;13.420;2023-03-13T09:00:14;71.40;;;37.60;;
11255;SDS011;5685;52.384;13.420;2023-03-13T09:03:19;71.17;;;37.60;;
11255;SDS011;5685;52.384;13.420;2023-03-13T09:06:23;71.60;;;37.70;;
11255;SDS011;5685;52.384;13.420;2023-03-13T09:09:25;71.83;;;37.73;;
11255;SDS011;5685;52.384;13.420;2023-03-13T09:12:28;71.83;;;37.80;;
11255;SDS011;5685;52.384;13.420;2023-03-13T09:15:31;72.00;;;37.80;;
11255;SDS011;5685;52.384;13.420;2023-03-13T09:18:35;71.50;;;37.50;;
11255;SDS011;5685;52.384;13.420;2023-03-13T09:21:38;71.40;;;37.40;;
11255;SDS011;5685;52.384;13.420;2023-03-13T09:24:40;71.73;;;37.70;;
11255;SDS011;5685;52.384;13.420;2023-03-13T09:27:44;71.50;;;37.77;;
11255;SDS011;5685;52.384;13.420;2023-03-13T09:30:46;70.93;;;37.80;;
11255;SDS011;5685;52.384;13.420;2023-03-13T09:33:51;70.27;;;37.53;;
11255;SDS011;5685;52.384;13.420;2023-03-13T09:36:54;70.30;;;37.60;;
11255;SDS011;5685;52.384;13.420;2023-03-13T09:39:57;70.17;;;37.90;;
11255;SDS011;5685;52.384;13.420;2023-03-13T09:43:00;69.97;;;38.10;;
11255;SDS011;5685;52.384;13.420;2023-03-13T09:46:03;69.47;;;38.10;;
11255;SDS011;5685;52.384;13.420;2023-03-13T09:49:14;68.87;;;37.83;;
11255;SDS011;5685;52.384;13.420;2023-03-13T09:52:30;68.20;;;37.83;;
11255;SDS011;5685;52.384;13.420;2023-03-13T09:55:35;68.00;;;37.90;;
11255;SDS011;5685;52.384;13.420;2023-03-13T09:58:38;67.73;;;37.70;;
11255;SDS011;5685;52.384;13.420;2023-03-13T10:01:45;67.87;;;37.80;;
11255;SDS011;5685;52.384;13.420;2023-03-13T10:04:50;67.00;;;37.53;;
11255;SDS011;5685;52.384;13.420;2023-03-13T10:07:57;67.43;;;37.60;;
11255;SDS011;5685;52.384;13.420;2023-03-13T10:11:02;67.47;;;37.80;;
11255;SDS011;5685;52.384;13.420;2023-03-13T10:14:10;67.50;;;37.87;;
11255;SDS011;5685;52.384;13.420;2023-03-13T10:17:19;66.93;;;37.67;;
11255;SDS011;5685;52.384;13.420;2023-03-13T10:20:28;66.50;;;37.50;;
11255;SDS011;5685;52.384;13.420;2023-03-13T10:23:37;67.23;;;37.70;;
11255;SDS011;5685;52.384;13.420;2023-03-13T10:26:41;67.97;;;37.90;;
11255;SDS011;5685;52.384;13.420;2023-03-13T10:29:44;68.00;;;37.90;;
11255;SDS011;5685;52.384;13.420;2023-03-13T10:32:46;68.60;;;38.17;;
11255;SDS011;5685;52.384;13.420;2023-03-13T10:36:07;67.80;;;37.83;;
11255;SDS011;5685;52.384;13.420;2023-03-13T10:39:13;68.10;;;37.90;;
11255;SDS011;5685;52.384;13.420;2023-03-13T10:42:19;67.90;;;37.77;;
11255;SDS011;5685;52.384;13.420;2023-03-13T10:45:25;67.77;;;38.00;;
11255;SDS011;5685;52.384;13.420;2023-03-13T10:48:35;67.97;;;37.90;;
11255;SDS011;5685;52.384;13.420;2023-03-13T10:51:40;68.27;;;37.90;;
11255;SDS011;5685;52.384;13.420;2023-03-13T10:54:47;68.20;;;38.00;;
11255;SDS011;5685;52.384;13.420;2023-03-13T10:57:51;67.73;;;37.90;;
11255;SDS011;5685;52.384;13.420;2023-03-13T11:01:07;68.27;;;38.00;;
11255;SDS011;5685;52.384;13.420;2023-03-13T11:04:24;68.30;;;37.80;;
11255;SDS011;5685;52.384;13.420;2023-03-13T11:07:32;68.20;;;37.80;;
11255;SDS011;5685;52.384;13.420;2023-03-13T11:10:37;68.43;;;37.80;;
11255;SDS011;5685;52.384;13.420;2023-03-13T11:13:53;68.57;;;38.10;;
11255;SDS011;5685;52.384;13.420;2023-03-13T11:16:59;68.50;;;37.87;;
11255;SDS011;5685;52.384;13.420;2023-03-13T11:20:11;68.73;;;38.00;;
11255;SDS011;5685;52.384;13.420;2023-03-13T11:23:22;68.80;;;38.00;;
11255;SDS011;5685;52.384;13.420;2023-03-13T11:26:30;68.93;;;38.00;;
11255;SDS011;5685;52.384;13.420;2023-03-13T11:29:38;69.37;;;38.30;;
11255;SDS011;5685;52.384;13.420;2023-03-13T11:32:46;69.03;;;38.10;;
11255;SDS011;5685;52.384;13.420;2023-03-13T11:35:52;68.80;;;37.93;;
11255;SDS011;5685;52.384;13.420;2023-03-13T11:39:08;69.07;;;38.10;;
11255;SDS011;5685;52.384;13.420;2023-03-13T11:42:37;68.50;;;37.80;;
11255;SDS011;5685;52.384;13.420;2023-03-13T11:45:57;69.30;;;38.17;;
11255;SDS011;5685;52.384;13.420;2023-03-13T11:49:34;69.30;;;38.03;;
11255;SDS011;5685;52.384;13.420;2023-03-13T11:53:17;69.73;;;38.30;;
11255;SDS011;5685;52.384;13.420;2023-03-13T11:56:42;69.40;;;38.07;;
11255;SDS011;5685;52.384;13.420;2023-03-13T11:59:47;69.97;;;38.40;;
11255;SDS011;5685;52.384;13.420;2023-03-13T12:02:56;70.67;;;38.60;;
11255;SDS011;5685;52.384;13.420;2023-03-13T12:06:05;69.70;;;38.30;;
11255;SDS011;5685;52.384;13.420;2023-03-13T12:09:16;69.67;;;38.37;;
11255;SDS011;5685;52.384;13.420;2023-03-13T12:12:28;69.53;;;38.30;;
11255;SDS011;5685;52.384;13.420;2023-03-13T12:15:36;70.00;;;38.47;;
11255;SDS011;5685;52.384;13.420;2023-03-13T12:18:41;69.77;;;38.30;;
11255;SDS011;5685;52.384;13.420;2023-03-13T12:21:46;70.37;;;38.40;;
11255;SDS011;5685;52.384;13.420;2023-03-13T12:24:53;70.20;;;38.30;;
11255;SDS011;5685;52.384;13.420;2023-03-13T12:28:02;70.50;;;38.47;;
11255;SDS011;5685;52.384;13.420;2023-03-13T12:31:13;70.97;;;38.60;;
11255;SDS011;5685;52.384;13.420;2023-03-13T12:34:21;70.70;;;38.27;;
11255;SDS011;5685;52.384;13.420;2023-03-13T12:37:29;70.80;;;38.17;;
11255;SDS011;5685;52.384;13.420;2023-03-13T12:40:37;71.57;;;38.43;;
11255;SDS011;5685;52.384;13.420;2023-03-13T12:43:47;71.50;;;38.13;;
11255;SDS011;5685;52.384;13.420;2023-03-13T12:46:53;72.33;;;38.50;;
11255;SDS011;5685;52.384;13.420;2023-03-13T12:50:07;72.60;;;38.37;;
11255;SDS011;5685;52.384;13.420;2023-03-13T12:57:13;73.13;;;38.43;;
11255;SDS011;5685;52.384;13.420;2023-03-13T13:00:24;73.57;;;38.70;;
11255;SDS011;5685;52.384;13.420;2023-03-13T13:03:29;73.70;;;38.70;;
11255;SDS011;5685;52.384;13.420;2023-03-13T13:06:49;73.10;;;38.53;;
11255;SDS011;5685;52.384;13.420;2023-03-13T13:13:18;73.27;;;38.60;;
11255;SDS011;5685;52.384;13.420;2023-03-13T13:16:32;73.27;;;38.50;;
11255;SDS011;5685;52.384;13.420;2023-03-13T13:19:42;73.40;;;38.60;;
11255;SDS011;5685;52.384;13.420;2023-03-13T13:22:48;73.53;;;38.70;;
11255;SDS011;5685;52.384;13.420;2023-03-13T13:25:51;73.20;;;38.60;;
11255;SDS011;5685;52.384;13.420;2023-03-13T13:28:55;73.30;;;38.80;;
11255;SDS011;5685;52.384;13.420;2023-03-13T13:32:00;73.13;;;38.43;;
11255;SDS011;5685;52.384;13.420;2023-03-13T13:35:04;73.57;;;38.77;;
11255;SDS011;5685;52.384;13.420;2023-03-13T13:38:29;73.80;;;38.80;;
11255;SDS011;5685;52.384;13.420;2023-03-13T13:41:36;73.77;;;38.83;;
11255;SDS011;5685;52.384;13.420;2023-03-13T13:44:57;74.10;;;38.90;;
11255;SDS011;5685;52.384;13.420;2023-03-13T13:48:13;74.20;;;38.90;;
11255;SDS011;5685;52.384;13.420;2023-03-13T13:51:24;74.07;;;38.90;;
11255;SDS011;5685;52.384;13.420;2023-03-13T13:54:29;74.23;;;39.00;;
11255;SDS011;5685;52.384;13.420;2023-03-13T13:57:33;74.30;;;39.20;;
11255;SDS011;5685;52.384;13.420;2023-03-13T14:00:39;74.00;;;39.00;;
11255;SDS011;5685;52.384;13.420;2023-03-13T14:03:43;74.27;;;39.07;;
11255;SDS011;5685;52.384;13.420;2023-03-13T14:06:46;73.97;;;38.90;;
11255;SDS011;5685;52.384;13.420;2023-03-13T14:09:52;73.93;;;38.80;;
11255;SDS011;5685;52.384;13.420;2023-03-13T14:13:10;73.97;;;39.00;;
11255;SDS011;5685;52.384;13.420;2023-03-13T14:16:20;74.27;;;39.10;;
11255;SDS011;5685;52.384;13.420;2023-03-13T14:19:25;72.77;;;38.60;;
11255;SDS011;5685;52.384;13.420;2023-03-13T14:22:42;73.33;;;38.87;;
11255;SDS011;5685;52.384;13.420;2023-03-13T14:25:46;73.83;;;38.93;;
11255;SDS011;5685;52.384;13.420;2023-03-13T14:28:51;73.50;;;38.93;;
11255;SDS011;5685;52.384;13.420;2023-03-13T14:31:58;72.87;;;38.57;;
11255;SDS011;5685;52.384;13.420;2023-03-13T14:35:00;73.83;;;39.10;;
11255;SDS011;5685;52.384;13.420;2023-03-13T14:38:04;73.83;;;39.00;;
11255;SDS011;5685;52.384;13.420;2023-03-13T14:41:19;73.57;;;39.07;;
11255;SDS011;5685;52.384;13.420;2023-03-13T14:44:29;74.03;;;39.13;;
11255;SDS011;5685;52.384;13.420;2023-03-13T14:47:35;74.70;;;39.40;;
11255;SDS011;5685;52.384;13.420;2023-03-13T14:50:38;73.03;;;38.80;;
11255;SDS011;5685;52.384;13.420;2023-03-13T14:53:51;74.10;;;39.27;;
11255;SDS011;5685;52.384;13.420;2023-03-13T15:00:35;74.40;;;39.20;;
11255;SDS011;5685;52.384;13.420;2023-03-13T15:03:43;74.20;;;39.30;;
11255;SDS011;5685;52.384;13.420;2023-03-13T15:06:46;74.30;;;39.20;;
11255;SDS011;5685;52.384;13.420;2023-03-13T15:09:49;75.13;;;39.40;;
11255;SDS011;5685;52.384;13.420;2023-03-13T15:12:52;74.20;;;39.17;;
11255;SDS011;5685;52.384;13.420;2023-03-13T15:15:54;74.53;;;39.30;;
11255;SDS011;5685;52.384;13.420;2023-03-13T15:18:58;75.33;;;39.50;;
11255;SDS011;5685;52.384;13.420;2023-03-13T15:22:01;74.43;;;39.17;;
11255;SDS011;5685;52.384;13.420;2023-03-13T15:25:05;75.37;;;39.57;;
11255;SDS011;5685;52.384;13.420;2023-03-13T15:28:14;74.80;;;39.50;;
11255;SDS011;5685;52.384;13.420;2023-03-13T15:31:18;75.30;;;39.53;;
11255;SDS011;5685;52.384;13.420;2023-03-13T15:34:25;75.50;;;39.60;;
11255;SDS011;5685;52.384;13.420;2023-03-13T15:37:28;74.50;;;39.40;;
11255;SDS011;5685;52.384;13.420;2023-03-13T15:40:31;74.83;;;39.30;;
11255;SDS011;5685;52.384;13.420;2023-03-13T15:43:34;75.10;;;39.50;;
11255;SDS011;5685;52.384;13.420;2023-03-13T15:46:37;74.30;;;39.40;;
11255;SDS011;5685;52.384;13.420;2023-03-13T15:49:41;74.00;;;39.33;;
11255;SDS011;5685;52.384;13.420;2023-03-13T15:52:44;73.60;;;39.30;;
11255;SDS011;5685;52.384;13.420;2023-03-13T15:55:46;72.80;;;38.93;;
11255;SDS011;5685;52.384;13.420;2023-03-13T15:58:50;73.10;;;39.17;;
11255;SDS011;5685;52.384;13.420;2023-03-13T16:01:53;73.20;;;39.23;;
11255;SDS011;5685;52.384;13.420;2023-03-13T16:04:57;73.40;;;39.20;;
11255;SDS011;5685;52.384;13.420;2023-03-13T16:07:59;73.20;;;39.20;;
11255;SDS011;5685;52.384;13.420;2023-03-13T16:11:02;72.87;;;39.00;;
11255;SDS011;5685;52.384;13.420;2023-03-13T16:14:05;73.23;;;39.23;;
11255;SDS011;5685;52.384;13.420;2023-03-13T16:17:10;73.00;;;39.17;;
11255;SDS011;5685;52.384;13.420;2023-03-13T16:20:17;72.63;;;39.07;;
11255;SDS011;5685;52.384;13.420;2023-03-13T16:23:21;73.13;;;39.17;;
11255;SDS011;5685;52.384;13.420;2023-03-13T16:26:24;73.90;;;39.40;;
11255;SDS011;5685;52.384;13.420;2023-03-13T16:29:28;73.60;;;39.30;;
11255;SDS011;5685;52.384;13.420;2023-03-13T16:32:30;73.23;;;39.13;;
11255;SDS011;5685;52.384;13.420;2023-03-13T16:35:35;73.13;;;39.20;;
11255;SDS011;5685;52.384;13.420;2023-03-13T16:38:38;74.10;;;39.60;;
11255;SDS011;5685;52.384;13.420;2023-03-13T16:41:41;73.80;;;39.47;;
11255;SDS011;5685;52.384;13.420;2023-03-13T16:44:43;74.00;;;39.60;;
11255;SDS011;5685;52.384;13.420;2023-03-13T16:47:46;74.07;;;39.50;;
11255;SDS011;5685;52.384;13.420;2023-03-13T16:50:50;73.40;;;39.23;;
11255;SDS011;5685;52.384;13.420;2023-03-13T16:53:53;74.03;;;39.50;;
11255;SDS011;5685;52.384;13.420;2023-03-13T16:56:58;74.07;;;39.40;;
11255;SDS011;5685;52.384;13.420;2023-03-13T17:00:08;74.13;;;39.50;;
11255;SDS011;5685;52.384;13.420;2023-03-13T17:03:14;73.93;;;39.53;;
11255;SDS011;5685;52.384;13.420;2023-03-13T17:06:19;74.33;;;39.67;;
11255;SDS011;5685;52.384;13.420;2023-03-13T17:09:23;74.40;;;39.57;;
11255;SDS011;5685;52.384;13.420;2023-03-13T17:12:25;74.20;;;39.50;;
11255;SDS011;5685;52.384;13.420;2023-03-13T17:15:28;74.60;;;39.80;;
11255;SDS011;5685;52.384;13.420;2023-03-13T17:18:31;74.10;;;39.53;;
11255;SDS011;5685;52.384;13.420;2023-03-13T17:21:35;74.40;;;39.80;;
11255;SDS011;5685;52.384;13.420;2023-03-13T17:24:37;74.37;;;39.60;;
11255;SDS011;5685;52.384;13.420;2023-03-13T17:27:40;74.47;;;39.77;;
11255;SDS011;5685;52.384;13.420;2023-03-13T17:30:46;73.87;;;39.47;;
11255;SDS011;5685;52.384;13.420;2023-03-13T17:33:49;73.37;;;39.37;;
11255;SDS011;5685;52.384;13.420;2023-03-13T17:36:53;73.50;;;39.53;;
11255;SDS011;5685;52.384;13.420;2023-03-13T17:39:56;71.23;;;39.13;;
11255;SDS011;5685;52.384;13.420;2023-03-13T17:42:59;70.87;;;39.63;;
11255;SDS011;5685;52.384;13.420;2023-03-13T17:46:01;68.53;;;39.30;;
11255;SDS011;5685;52.384;13.420;2023-03-13T17:49:05;68.20;;;39.17;;
11255;SDS011;5685;52.384;13.420;2023-03-13T17:52:12;67.97;;;39.13;;
11255;SDS011;5685;52.384;13.420;2023-03-13T17:55:16;68.23;;;39.20;;
11255;SDS011;5685;52.384;13.420;2023-03-13T17:58:19;68.10;;;39.30;;
11255;SDS011;5685;52.384;13.420;2023-03-13T18:01:22;67.43;;;39.20;;
11255;SDS011;5685;52.384;13.420;2023-03-13T18:04:26;67.30;;;39.10;;
11255;SDS011;5685;52.384;13.420;2023-03-13T18:07:30;67.60;;;39.33;;
11255;SDS011;5685;52.384;13.420;2023-03-13T18:10:33;67.87;;;39.10;;
11255;SDS011;5685;52.384;13.420;2023-03-13T18:13:35;69.43;;;39.57;;